Time;durP1;ratioP1;P1;durP2;ratioP2;P2;SDS_P1;SDS_P2;PMS_P1;PMS_P2;Temp;Humidity;BMP_temperature;BMP_pressure;BME280_temperature;BME280_humidity;BME280_pressure;Samples;Min_cycle;Max_cycle;Signal;HPM_P1;HPM_P2
2023/04/05 00:01:30;;;;;;;11.45;5.82;;;1.40;99.90;;;;;;4963145;28;20211;-66
2023/04/05 00:03:57;;;;;;;8.55;5.55;;;1.30;99.90;;;;;;4958643;28;20070;-66
2023/04/05 00:06:30;;;;;;;8.73;5.10;;;1.30;99.90;;;;;;4948858;28;20054;-65
2023/04/05 00:08:57;;;;;;;9.68;5.53;;;1.20;99.90;;;;;;4960979;28;20433;-66
2023/04/05 00:11:24;;;;;;;8.32;5.10;;;1.20;99.90;;;;;;4946702;28;20494;-66
2023/04/05 00:13:50;;;;;;;11.15;5.15;;;1.10;99.90;;;;;;4964482;28;20031;-65
2023/04/05 00:16:17;;;;;;;9.77;5.72;;;1.10;99.90;;;;;;4970452;28;20031;-66
2023/04/05 00:18:45;;;;;;;8.70;5.40;;;1.10;99.90;;;;;;4961856;28;20090;-66
2023/04/05 00:21:14;;;;;;;9.30;5.40;;;1.10;99.90;;;;;;4959984;28;20059;-66
2023/04/05 00:23:41;;;;;;;9.20;6.05;;;1.10;99.90;;;;;;4964818;28;20050;-66
2023/04/05 00:26:07;;;;;;;9.93;5.80;;;1.10;99.90;;;;;;4964102;28;20039;-65
2023/04/05 00:28:33;;;;;;;9.18;5.38;;;1.00;99.90;;;;;;4942333;28;20053;-65
2023/04/05 00:30:59;;;;;;;8.18;5.85;;;1.00;99.90;;;;;;4964526;28;20090;-65
2023/04/05 00:33:24;;;;;;;9.13;5.35;;;0.90;99.90;;;;;;4964220;28;20346;-65
2023/04/05 00:35:50;;;;;;;11.93;5.70;;;0.90;99.90;;;;;;4968535;28;20039;-65
2023/04/05 00:38:16;;;;;;;9.15;5.80;;;0.90;99.90;;;;;;4975248;28;20554;-65
2023/04/05 00:40:41;;;;;;;8.45;4.78;;;0.80;99.90;;;;;;4966639;28;20134;-65
2023/04/05 00:43:07;;;;;;;10.02;5.82;;;0.80;99.90;;;;;;4963597;28;20034;-65
2023/04/05 00:45:33;;;;;;;10.35;5.53;;;0.70;99.90;;;;;;4949335;28;20039;-65
2023/04/05 00:48:00;;;;;;;9.60;5.40;;;0.70;99.90;;;;;;4959286;28;20031;-65
2023/04/05 00:50:29;;;;;;;10.23;5.18;;;0.60;99.90;;;;;;4961636;28;20101;-65
2023/04/05 00:52:56;;;;;;;11.50;5.43;;;0.60;99.90;;;;;;4963574;28;20308;-65
2023/04/05 00:55:22;;;;;;;9.20;5.65;;;0.60;99.90;;;;;;4950594;28;20039;-65
2023/04/05 00:57:48;;;;;;;12.13;6.18;;;0.60;99.90;;;;;;4962203;28;20051;-66
2023/04/05 01:00:15;;;;;;;8.68;5.13;;;0.60;99.90;;;;;;4933590;28;20042;-66
2023/04/05 01:02:48;;;;;;;9.35;5.38;;;0.50;99.90;;;;;;4946931;28;20047;-66
2023/04/05 01:05:36;;;;;;;11.05;6.13;;;0.50;99.90;;;;;;4969182;28;20074;-66
2023/04/05 01:08:19;;;;;;;11.93;5.85;;;0.50;99.90;;;;;;4943465;28;20050;-66
2023/04/05 01:10:55;;;;;;;10.38;5.88;;;0.40;99.90;;;;;;4967312;28;20049;-65
2023/04/05 01:13:24;;;;;;;10.45;6.35;;;0.40;99.90;;;;;;4952800;28;20349;-66
2023/04/05 01:15:50;;;;;;;12.65;6.50;;;0.30;99.90;;;;;;4955623;28;20498;-66
2023/04/05 01:18:16;;;;;;;8.63;6.28;;;0.30;99.90;;;;;;4979941;28;20043;-66
2023/04/05 01:21:00;;;;;;;12.63;6.20;;;0.20;99.90;;;;;;4950779;28;20057;-66
2023/04/05 01:23:42;;;;;;;10.85;6.50;;;0.30;99.90;;;;;;4931483;28;20139;-66
2023/04/05 01:26:43;;;;;;;14.07;6.53;;;0.40;99.90;;;;;;4944928;28;20050;-65
2023/04/05 01:29:17;;;;;;;14.45;7.55;;;0.30;99.90;;;;;;4967898;28;20043;-66
2023/04/05 01:31:53;;;;;;;12.07;6.88;;;0.30;99.90;;;;;;4966078;28;20051;-66
2023/04/05 01:34:29;;;;;;;12.48;6.78;;;0.20;99.90;;;;;;4969776;28;20039;-65
2023/04/05 01:37:00;;;;;;;10.77;6.28;;;0.20;99.90;;;;;;4943155;28;20053;-65
2023/04/05 01:39:27;;;;;;;11.25;6.15;;;0.10;99.90;;;;;;4968408;28;20042;-65
2023/04/05 01:41:58;;;;;;;11.35;5.65;;;0.10;99.90;;;;;;4966027;28;20046;-65
2023/04/05 01:44:24;;;;;;;9.63;5.57;;;0.10;99.90;;;;;;4984944;28;20050;-65
2023/04/05 01:46:50;;;;;;;10.07;5.75;;;0.00;99.90;;;;;;4948772;28;20055;-65
2023/04/05 01:49:15;;;;;;;9.80;6.05;;;-0.10;99.90;;;;;;4966330;28;20122;-66
2023/04/05 01:51:41;;;;;;;12.32;6.00;;;-0.10;99.90;;;;;;4966504;28;20047;-65
2023/04/05 01:54:08;;;;;;;8.80;5.65;;;-0.10;99.90;;;;;;4962656;28;20031;-65
2023/04/05 01:56:34;;;;;;;11.07;6.05;;;-0.10;99.90;;;;;;4962928;28;20046;-65
2023/04/05 01:58:59;;;;;;;9.65;5.93;;;-0.20;99.90;;;;;;4949015;28;20792;-65
2023/04/05 02:01:25;;;;;;;12.73;7.28;;;-0.20;99.90;;;;;;4962445;28;20121;-65
2023/04/05 02:03:51;;;;;;;12.38;5.68;;;-0.30;99.90;;;;;;4959014;28;20125;-66
2023/04/05 02:06:17;;;;;;;9.68;5.85;;;-0.40;99.90;;;;;;4965672;28;20039;-66
2023/04/05 02:08:42;;;;;;;9.90;5.53;;;-0.40;99.90;;;;;;4951945;28;20519;-66
2023/04/05 02:11:08;;;;;;;13.75;6.10;;;-0.40;99.90;;;;;;4962892;28;20127;-66
2023/04/05 02:13:34;;;;;;;12.20;6.00;;;-0.40;99.90;;;;;;4934482;28;20531;-66
2023/04/05 02:15:59;;;;;;;10.75;5.80;;;-0.40;99.90;;;;;;4964082;28;20035;-66
2023/04/05 02:18:30;;;;;;;11.25;6.35;;;-0.40;99.90;;;;;;4967476;28;20046;-66
2023/04/05 02:21:04;;;;;;;10.73;6.25;;;-0.40;99.90;;;;;;4969122;28;20035;-66
2023/04/05 02:23:30;;;;;;;11.98;6.30;;;-0.40;99.90;;;;;;4964132;28;20042;-66
2023/04/05 02:25:57;;;;;;;8.88;5.40;;;-0.40;99.90;;;;;;4971270;28;20984;-66
2023/04/05 02:28:23;;;;;;;9.48;5.70;;;-0.50;99.90;;;;;;4965573;28;20047;-66
2023/04/05 02:30:49;;;;;;;12.30;6.22;;;-0.50;99.90;;;;;;4969263;28;20129;-66
2023/04/05 02:33:14;;;;;;;11.00;6.28;;;-0.50;99.90;;;;;;4969952;28;20042;-66
2023/04/05 02:35:40;;;;;;;9.00;5.55;;;-0.50;99.90;;;;;;4969300;28;20117;-66
2023/04/05 02:38:06;;;;;;;10.25;5.82;;;-0.60;99.90;;;;;;4966026;28;20435;-66
2023/04/05 02:40:33;;;;;;;9.90;6.22;;;-0.60;99.90;;;;;;4961742;28;20138;-66
2023/04/05 02:42:59;;;;;;;10.02;6.45;;;-0.70;99.90;;;;;;4965078;28;20547;-66
2023/04/05 02:45:26;;;;;;;10.60;5.65;;;-0.70;99.90;;;;;;4964061;28;20045;-66
2023/04/05 02:47:53;;;;;;;9.10;6.07;;;-0.70;99.90;;;;;;4947324;28;20070;-66
2023/04/05 02:50:19;;;;;;;14.18;6.25;;;-0.70;99.90;;;;;;4968973;28;20063;-66
2023/04/05 02:52:46;;;;;;;9.25;6.40;;;-0.70;99.90;;;;;;4963053;28;20487;-66
2023/04/05 02:55:12;;;;;;;12.68;6.40;;;-0.70;99.90;;;;;;4947678;28;20121;-66
2023/04/05 02:57:38;;;;;;;9.73;6.20;;;-0.80;99.90;;;;;;4969083;28;20113;-66
2023/04/05 03:00:07;;;;;;;12.73;6.80;;;-0.70;99.90;;;;;;4970709;28;20328;-66
2023/04/05 03:02:32;;;;;;;9.80;6.25;;;-0.70;99.90;;;;;;4949334;28;20414;-66
2023/04/05 03:05:01;;;;;;;10.90;6.13;;;-0.80;99.90;;;;;;4966756;28;20114;-66
2023/04/05 03:07:27;;;;;;;10.93;7.13;;;-0.80;99.90;;;;;;4968250;28;20105;-66
2023/04/05 03:09:53;;;;;;;10.82;6.25;;;-0.80;99.90;;;;;;4966369;28;20035;-66
2023/04/05 03:12:18;;;;;;;10.25;5.97;;;-0.90;99.90;;;;;;4966495;28;20042;-66
2023/04/05 03:14:45;;;;;;;11.50;5.80;;;-0.90;99.90;;;;;;4964633;28;20042;-66
2023/04/05 03:17:11;;;;;;;12.25;7.22;;;-1.00;99.90;;;;;;4965852;28;20046;-66
2023/04/05 03:19:37;;;;;;;11.95;7.00;;;-0.90;99.90;;;;;;4964540;28;20073;-66
2023/04/05 03:22:03;;;;;;;13.50;6.97;;;-1.00;99.90;;;;;;4958188;28;20150;-66
2023/04/05 03:24:30;;;;;;;9.52;5.78;;;-1.00;99.90;;;;;;4951312;28;20046;-66
2023/04/05 03:26:58;;;;;;;12.38;6.90;;;-1.00;99.90;;;;;;4965813;28;20113;-66
2023/04/05 03:29:24;;;;;;;10.38;6.90;;;-1.00;99.90;;;;;;4960080;28;20043;-66
2023/04/05 03:31:50;;;;;;;15.00;6.82;;;-1.00;99.90;;;;;;4962194;28;20424;-66
2023/04/05 03:34:16;;;;;;;14.20;7.78;;;-1.00;99.90;;;;;;4969731;28;20064;-66
2023/04/05 03:36:41;;;;;;;11.43;6.88;;;-1.00;99.90;;;;;;4950340;28;20080;-66
2023/04/05 03:39:13;;;;;;;12.85;7.28;;;-1.00;99.90;;;;;;4964903;28;20046;-66
2023/04/05 03:41:39;;;;;;;12.80;7.53;;;-1.10;99.90;;;;;;4964336;28;20188;-66
2023/04/05 03:44:06;;;;;;;11.43;6.53;;;-1.10;99.90;;;;;;4966379;28;20074;-66
2023/04/05 03:46:32;;;;;;;13.15;7.75;;;-1.10;99.90;;;;;;4964726;28;20039;-65
2023/04/05 03:48:59;;;;;;;11.63;6.88;;;-1.10;99.90;;;;;;4960229;28;20505;-65
2023/04/05 03:51:26;;;;;;;14.52;6.78;;;-1.10;99.90;;;;;;4960003;28;20055;-66
2023/04/05 03:53:51;;;;;;;13.00;7.60;;;-1.10;99.90;;;;;;4965812;28;20031;-66
2023/04/05 03:56:17;;;;;;;11.63;7.63;;;-1.20;99.90;;;;;;4963084;28;20035;-66
2023/04/05 03:58:43;;;;;;;15.25;8.43;;;-1.20;99.90;;;;;;4962508;28;20031;-66
2023/04/05 04:01:10;;;;;;;14.90;8.88;;;-1.20;99.90;;;;;;4966814;28;20429;-66
2023/04/05 04:03:36;;;;;;;14.43;8.88;;;-1.10;99.90;;;;;;4965846;28;20043;-66
2023/04/05 04:06:03;;;;;;;11.63;7.75;;;-1.10;99.90;;;;;;4946149;28;20046;-66
2023/04/05 04:08:29;;;;;;;14.45;7.88;;;-1.00;99.90;;;;;;4960620;28;20078;-65
2023/04/05 04:10:55;;;;;;;13.88;8.48;;;-1.00;99.90;;;;;;4950219;28;20062;-65
2023/04/05 04:13:21;;;;;;;14.18;8.18;;;-1.00;99.90;;;;;;4964475;28;20039;-65
2023/04/05 04:15:48;;;;;;;11.93;7.78;;;-1.00;99.90;;;;;;4963840;28;20454;-65
2023/04/05 04:18:14;;;;;;;15.88;8.43;;;-1.00;99.90;;;;;;4943149;28;20050;-65
2023/04/05 04:20:40;;;;;;;13.73;8.35;;;-0.90;99.90;;;;;;4964143;28;20090;-65
2023/04/05 04:23:08;;;;;;;16.52;8.52;;;-1.00;99.90;;;;;;4943894;28;20073;-66
2023/04/05 04:25:35;;;;;;;11.10;7.57;;;-1.00;99.90;;;;;;4950423;28;20050;-65
2023/04/05 04:28:03;;;;;;;14.77;7.93;;;-1.00;99.90;;;;;;4960386;28;20050;-65
2023/04/05 04:30:29;;;;;;;14.20;8.32;;;-1.00;99.90;;;;;;4951447;28;20053;-65
2023/04/05 04:32:55;;;;;;;13.70;7.78;;;-1.10;99.90;;;;;;4961817;28;20455;-65
2023/04/05 04:35:27;;;;;;;15.88;7.80;;;-1.10;99.90;;;;;;4963727;28;20176;-65
2023/04/05 04:37:59;;;;;;;15.15;7.90;;;-1.10;99.90;;;;;;4962629;28;20042;-65
2023/04/05 04:40:37;;;;;;;16.05;8.02;;;-1.10;99.90;;;;;;4964440;28;20039;-65
2023/04/05 04:43:16;;;;;;;13.02;8.27;;;-1.20;99.90;;;;;;4965577;28;20494;-66
2023/04/05 04:45:49;;;;;;;14.10;7.45;;;-1.20;99.90;;;;;;4946391;28;20138;-66
2023/04/05 04:48:17;;;;;;;16.05;8.60;;;-1.20;99.90;;;;;;4952556;28;20052;-65
2023/04/05 04:50:44;;;;;;;14.07;8.90;;;-1.20;99.90;;;;;;4962283;28;20063;-66
2023/04/05 04:53:12;;;;;;;18.42;8.25;;;-1.20;99.90;;;;;;4965882;28;20130;-66
2023/04/05 04:55:41;;;;;;;13.88;7.60;;;-1.20;99.90;;;;;;4954813;28;20065;-65
2023/04/05 04:58:10;;;;;;;11.27;7.88;;;-1.30;99.90;;;;;;4965415;28;20038;-65
2023/04/05 05:00:43;;;;;;;12.73;8.65;;;-1.30;99.90;;;;;;4948199;28;20042;-64
2023/04/05 05:03:12;;;;;;;13.52;8.43;;;-1.30;99.90;;;;;;4967539;28;20082;-65
2023/04/05 05:05:49;;;;;;;14.52;8.10;;;-1.30;99.90;;;;;;4963957;28;20126;-64
2023/04/05 05:08:15;;;;;;;13.95;8.60;;;-1.30;99.90;;;;;;4946858;28;20043;-64
2023/04/05 05:10:41;;;;;;;14.98;8.13;;;-1.30;99.90;;;;;;4968015;28;20501;-64
2023/04/05 05:13:07;;;;;;;17.15;8.52;;;-1.30;99.90;;;;;;4967167;28;20047;-64
2023/04/05 05:15:33;;;;;;;12.20;7.68;;;-1.30;99.90;;;;;;4945594;28;20039;-65
2023/04/05 05:17:59;;;;;;;14.80;7.97;;;-1.30;99.90;;;;;;4968451;28;20035;-66
2023/04/05 05:20:27;;;;;;;16.80;8.57;;;-1.30;99.90;;;;;;4962526;28;20039;-65
2023/04/05 05:22:53;;;;;;;13.40;8.65;;;-1.30;99.90;;;;;;4969067;28;20118;-64
2023/04/05 05:25:20;;;;;;;14.40;8.32;;;-1.40;99.90;;;;;;4961480;28;20039;-66
2023/04/05 05:27:49;;;;;;;12.15;8.05;;;-1.30;99.90;;;;;;4964199;28;20518;-65
2023/04/05 05:30:15;;;;;;;11.60;8.63;;;-1.30;99.90;;;;;;4964454;28;20446;-65
2023/04/05 05:32:41;;;;;;;16.77;8.88;;;-1.30;99.90;;;;;;4967484;28;20119;-65
2023/04/05 05:35:08;;;;;;;16.77;9.88;;;-1.30;99.90;;;;;;4965439;28;20389;-66
2023/04/05 05:37:35;;;;;;;15.63;9.52;;;-1.20;99.90;;;;;;4982226;28;20045;-65
2023/04/05 05:40:01;;;;;;;18.38;11.02;;;-1.20;99.90;;;;;;4946391;28;20049;-66
2023/04/05 05:42:26;;;;;;;15.63;10.80;;;-1.10;99.90;;;;;;4964721;28;20046;-66
2023/04/05 05:44:52;;;;;;;17.70;11.85;;;-1.00;99.90;;;;;;4961223;28;20038;-66
2023/04/05 05:47:18;;;;;;;17.33;11.65;;;-0.90;99.90;;;;;;4968229;28;20042;-66
2023/04/05 05:49:44;;;;;;;16.17;11.15;;;-0.80;99.90;;;;;;4965229;28;20039;-66
2023/04/05 05:52:10;;;;;;;21.70;11.57;;;-0.70;99.90;;;;;;4971347;28;20042;-67
2023/04/05 05:54:36;;;;;;;21.00;11.38;;;-0.60;99.90;;;;;;4955598;28;20046;-66
2023/04/05 05:57:02;;;;;;;19.67;11.40;;;-0.50;99.90;;;;;;4952013;28;20042;-66
2023/04/05 05:59:28;;;;;;;17.77;10.23;;;-0.40;99.90;;;;;;4934872;28;20100;-67
2023/04/05 06:01:54;;;;;;;15.45;10.43;;;-0.30;99.90;;;;;;4963513;28;20060;-66
2023/04/05 06:04:20;;;;;;;17.00;11.18;;;-0.20;99.90;;;;;;4938772;28;20055;-66
2023/04/05 06:06:46;;;;;;;15.05;10.65;;;0.00;99.90;;;;;;4945557;28;20047;-66
2023/04/05 06:09:13;;;;;;;19.45;10.32;;;0.10;99.90;;;;;;4947953;28;20097;-66
2023/04/05 06:11:39;;;;;;;17.50;11.10;;;0.10;99.90;;;;;;4943786;28;20074;-65
2023/04/05 06:14:05;;;;;;;19.10;11.05;;;0.30;99.90;;;;;;4967105;28;20035;-64
2023/04/05 06:16:31;;;;;;;17.02;11.20;;;0.20;99.90;;;;;;4953332;28;20174;-64
2023/04/05 06:18:57;;;;;;;19.58;11.40;;;0.40;99.90;;;;;;4969621;28;20035;-64
2023/04/05 06:21:23;;;;;;;16.10;11.73;;;0.50;99.90;;;;;;4966461;28;20046;-64
2023/04/05 06:23:48;;;;;;;17.55;11.35;;;0.60;99.90;;;;;;4966796;28;20087;-65
2023/04/05 06:26:25;;;;;;;15.82;11.48;;;0.70;99.90;;;;;;4972223;28;20077;-64
2023/04/05 06:28:53;;;;;;;20.88;11.65;;;0.80;99.90;;;;;;4971070;28;20122;-64
2023/04/05 06:31:24;;;;;;;18.75;10.63;;;0.90;99.90;;;;;;4965456;28;20050;-65
2023/04/05 06:33:50;;;;;;;16.23;10.52;;;1.10;99.90;;;;;;4971566;28;20130;-65
2023/04/05 06:36:16;;;;;;;16.70;10.60;;;1.20;99.90;;;;;;4965019;28;20609;-65
2023/04/05 06:38:41;;;;;;;14.52;10.18;;;1.30;99.90;;;;;;4946093;28;20047;-65
2023/04/05 06:41:07;;;;;;;16.15;10.70;;;1.50;99.90;;;;;;4935315;28;20129;-65
2023/04/05 06:43:33;;;;;;;15.40;9.90;;;1.70;99.90;;;;;;4965814;28;20117;-66
2023/04/05 06:45:59;;;;;;;16.65;10.10;;;1.70;99.90;;;;;;4965673;28;20031;-66
2023/04/05 06:48:27;;;;;;;15.18;10.50;;;1.80;99.90;;;;;;4944479;28;20050;-66
2023/04/05 06:50:59;;;;;;;14.52;9.65;;;2.00;99.90;;;;;;4967330;28;20047;-66
2023/04/05 06:53:26;;;;;;;14.88;9.90;;;2.10;99.90;;;;;;4969165;28;20065;-66
2023/04/05 06:55:58;;;;;;;14.80;10.00;;;2.20;99.90;;;;;;4973645;28;20106;-66
2023/04/05 06:58:25;;;;;;;12.70;9.95;;;2.30;99.90;;;;;;4963761;28;20484;-66
2023/04/05 07:00:51;;;;;;;13.77;9.70;;;2.40;99.90;;;;;;4963516;28;20093;-66
2023/04/05 07:03:17;;;;;;;11.88;9.45;;;2.60;99.90;;;;;;4968947;28;20050;-66
2023/04/05 07:06:10;;;;;;;17.50;10.00;;;2.70;99.90;;;;;;4948424;28;20035;-66
2023/04/05 07:08:36;;;;;;;14.30;9.65;;;2.90;99.90;;;;;;4954101;28;20091;-66
2023/04/05 07:11:02;;;;;;;16.35;10.13;;;3.00;99.90;;;;;;4968333;28;20093;-66
2023/04/05 07:13:27;;;;;;;19.75;11.45;;;3.20;99.90;;;;;;4966792;28;20355;-66
2023/04/05 07:16:00;;;;;;;17.25;10.40;;;3.40;99.90;;;;;;4969390;28;20035;-66
2023/04/05 07:18:26;;;;;;;15.45;10.38;;;3.60;99.90;;;;;;4962240;28;20047;-66
2023/04/05 07:20:58;;;;;;;13.10;10.10;;;3.80;99.90;;;;;;4962741;28;20042;-66
2023/04/05 07:23:25;;;;;;;14.38;9.30;;;4.00;99.90;;;;;;4947920;28;20391;-67
2023/04/05 07:25:51;;;;;;;13.48;9.73;;;4.20;99.90;;;;;;4966918;28;20351;-65
2023/04/05 07:28:16;;;;;;;14.65;10.77;;;4.40;99.90;;;;;;4943332;28;20035;-65
2023/04/05 07:30:42;;;;;;;13.73;10.18;;;4.60;99.90;;;;;;4965857;28;20094;-66
2023/04/05 07:33:08;;;;;;;11.88;9.43;;;4.80;99.90;;;;;;4950447;28;20035;-65
2023/04/05 07:35:33;;;;;;;11.13;9.90;;;5.00;99.90;;;;;;4968476;28;20035;-66
2023/04/05 07:37:59;;;;;;;11.77;9.63;;;5.30;99.90;;;;;;4962288;28;20054;-66
2023/04/05 07:40:25;;;;;;;13.02;9.32;;;5.60;99.90;;;;;;4960420;28;20491;-66
2023/04/05 07:42:51;;;;;;;10.10;8.77;;;6.00;99.90;;;;;;4964600;28;20136;-66
2023/04/05 07:45:16;;;;;;;11.38;8.32;;;6.70;99.90;;;;;;4967039;28;20375;-66
2023/04/05 07:47:42;;;;;;;11.95;7.90;;;7.40;99.90;;;;;;4948041;28;20404;-67
2023/04/05 07:50:10;;;;;;;11.48;8.07;;;8.30;99.90;;;;;;4950185;28;20070;-67
2023/04/05 07:52:36;;;;;;;9.77;7.95;;;9.00;99.90;;;;;;4970256;28;20491;-66
2023/04/05 07:55:02;;;;;;;11.38;9.00;;;9.70;99.90;;;;;;4960454;28;20046;-67
2023/04/05 07:57:28;;;;;;;10.88;8.07;;;10.60;99.90;;;;;;4977295;28;20663;-67
2023/04/05 07:59:54;;;;;;;8.68;7.25;;;11.40;99.90;;;;;;4962360;28;20034;-67
2023/04/05 08:02:20;;;;;;;9.07;6.50;;;12.10;99.90;;;;;;4965475;28;20101;-68
2023/04/05 08:04:46;;;;;;;8.20;6.88;;;12.50;99.90;;;;;;4959715;28;20483;-67
2023/04/05 08:07:11;;;;;;;7.40;6.35;;;12.60;99.90;;;;;;4956769;28;20039;-68
2023/04/05 08:09:37;;;;;;;8.85;6.63;;;12.70;99.90;;;;;;4945486;28;20039;-68
2023/04/05 08:12:03;;;;;;;8.07;6.80;;;13.00;99.90;;;;;;4950006;28;20073;-68
2023/04/05 08:14:29;;;;;;;9.27;6.50;;;13.60;99.90;;;;;;4968085;28;20109;-68
2023/04/05 08:16:54;;;;;;;8.07;6.15;;;13.90;98.10;;;;;;4958802;28;20125;-68
2023/04/05 08:19:20;;;;;;;7.43;6.55;;;14.40;96.90;;;;;;4963179;28;20175;-68
2023/04/05 08:21:46;;;;;;;7.65;5.93;;;14.80;95.90;;;;;;4963000;28;20039;-68
2023/04/05 08:24:11;;;;;;;6.88;5.50;;;15.00;94.20;;;;;;4959582;28;20042;-68
2023/04/05 08:26:38;;;;;;;8.02;6.20;;;15.00;92.40;;;;;;4959793;28;20050;-68
2023/04/05 08:29:04;;;;;;;8.68;6.38;;;15.00;91.60;;;;;;4948569;28;20494;-68
2023/04/05 08:31:29;;;;;;;9.13;6.82;;;15.20;90.50;;;;;;4965827;28;20137;-66
2023/04/05 08:33:55;;;;;;;6.85;5.68;;;15.30;88.50;;;;;;4961613;28;20524;-67
2023/04/05 08:36:21;;;;;;;7.75;6.18;;;15.20;85.90;;;;;;4956474;28;20110;-67
2023/04/05 08:38:46;;;;;;;6.90;5.80;;;15.50;85.40;;;;;;4968707;28;20039;-67
2023/04/05 08:41:25;;;;;;;8.15;5.55;;;15.80;85.40;;;;;;4964960;28;20092;-67
2023/04/05 08:44:01;;;;;;;8.88;6.30;;;16.20;82.50;;;;;;4964993;28;20359;-68
2023/04/05 08:46:30;;;;;;;6.53;5.82;;;16.40;82.10;;;;;;4959426;28;20039;-67
2023/04/05 08:49:00;;;;;;;6.55;5.57;;;16.70;81.20;;;;;;4947842;28;20464;-66
2023/04/05 08:51:27;;;;;;;6.25;5.65;;;16.70;78.40;;;;;;4962546;28;20042;-67
2023/04/05 08:53:53;;;;;;;8.55;5.18;;;16.90;78.10;;;;;;4959412;28;20517;-67
2023/04/05 08:56:29;;;;;;;5.97;5.13;;;17.00;75.50;;;;;;4961556;28;20711;-68
2023/04/05 08:59:04;;;;;;;6.03;4.50;;;17.20;73.30;;;;;;4965809;28;20054;-67
2023/04/05 09:01:31;;;;;;;7.90;4.80;;;17.30;71.70;;;;;;4959477;28;20427;-67
2023/04/05 09:04:05;;;;;;;5.13;4.28;;;17.40;70.80;;;;;;4966164;28;20039;-68
2023/04/05 09:06:31;;;;;;;5.93;4.30;;;17.40;67.20;;;;;;4949126;28;20097;-69
2023/04/05 09:08:57;;;;;;;5.95;4.88;;;17.50;67.20;;;;;;4961544;28;20350;-68
2023/04/05 09:11:25;;;;;;;5.80;3.70;;;17.60;66.30;;;;;;4965016;28;20395;-69
2023/04/05 09:13:51;;;;;;;4.80;4.10;;;17.60;62.90;;;;;;4961429;28;20047;-67
2023/04/05 09:16:17;;;;;;;6.13;4.53;;;17.50;61.70;;;;;;4967647;28;20057;-67
2023/04/05 09:18:43;;;;;;;5.10;4.10;;;17.40;60.50;;;;;;4961927;28;20505;-67
2023/04/05 09:21:09;;;;;;;5.28;4.00;;;17.10;60.00;;;;;;4961049;28;20043;-67
2023/04/05 09:23:35;;;;;;;6.20;4.05;;;17.20;60.70;;;;;;4962224;28;20046;-68
2023/04/05 09:26:17;;;;;;;5.63;4.45;;;17.30;59.20;;;;;;4971896;28;20394;-69
2023/04/05 09:28:43;;;;;;;5.93;3.90;;;17.30;56.40;;;;;;4950372;28;20035;-68
2023/04/05 09:31:08;;;;;;;8.40;3.90;;;16.90;56.60;;;;;;4965266;28;20030;-69
2023/04/05 09:33:35;;;;;;;5.40;3.35;;;17.00;56.60;;;;;;4963525;28;20500;-68
2023/04/05 09:36:01;;;;;;;3.63;2.80;;;17.10;56.50;;;;;;4971787;28;20110;-68
2023/04/05 09:38:44;;;;;;;4.95;3.25;;;17.30;55.60;;;;;;4969861;28;20041;-68
2023/04/05 09:41:10;;;;;;;4.72;2.70;;;17.40;54.20;;;;;;4949262;28;20205;-68
2023/04/05 09:43:40;;;;;;;5.22;3.40;;;17.40;54.70;;;;;;4964229;28;20118;-68
2023/04/05 09:46:15;;;;;;;4.75;2.65;;;17.10;54.40;;;;;;4969339;28;20035;-68
2023/04/05 09:48:50;;;;;;;4.50;3.00;;;16.90;52.60;;;;;;4947439;28;20254;-68
2023/04/05 09:51:17;;;;;;;4.07;2.72;;;16.90;53.00;;;;;;4952260;28;20129;-68
2023/04/05 09:54:05;;;;;;;4.88;3.05;;;17.20;52.70;;;;;;4965329;28;20051;-68
2023/04/05 09:56:36;;;;;;;4.20;3.15;;;17.50;51.00;;;;;;4944229;28;20180;-68
2023/04/05 09:59:10;;;;;;;4.55;3.47;;;17.70;52.80;;;;;;4952893;28;20042;-69
2023/04/05 10:01:38;;;;;;;4.75;2.78;;;17.70;52.70;;;;;;4968852;28;20042;-68
2023/04/05 10:04:04;;;;;;;5.47;3.30;;;17.40;51.90;;;;;;4951093;28;20055;-68
2023/04/05 10:06:40;;;;;;;4.95;3.40;;;17.20;50.90;;;;;;4970338;28;20070;-69
2023/04/05 10:09:08;;;;;;;4.35;3.30;;;17.10;49.40;;;;;;4966514;28;20464;-69
2023/04/05 10:11:35;;;;;;;4.55;3.08;;;16.20;48.20;;;;;;4956884;28;20047;-68
2023/04/05 10:14:05;;;;;;;4.07;3.25;;;15.40;50.70;;;;;;4966839;28;20058;-69
2023/04/05 10:16:35;;;;;;;4.40;3.38;;;15.30;51.80;;;;;;4965251;28;20069;-69
2023/04/05 10:19:07;;;;;;;6.45;2.95;;;15.60;52.40;;;;;;4964858;28;20040;-69
2023/04/05 10:21:36;;;;;;;5.35;3.15;;;16.10;52.70;;;;;;4969944;28;20097;-69
2023/04/05 10:24:19;;;;;;;4.40;3.25;;;16.20;50.40;;;;;;4969045;28;20039;-69
2023/04/05 10:26:51;;;;;;;5.88;3.78;;;16.20;49.70;;;;;;4950987;28;20058;-70
2023/04/05 10:29:28;;;;;;;4.93;4.03;;;16.20;50.20;;;;;;4954265;28;20097;-70
2023/04/05 10:32:19;;;;;;;5.00;3.53;;;15.90;49.60;;;;;;4949553;28;20047;-70
2023/04/05 10:34:56;;;;;;;4.95;3.53;;;15.20;48.10;;;;;;4954536;28;20582;-70
2023/04/05 10:37:47;;;;;;;6.50;3.78;;;14.60;50.60;;;;;;4969801;28;20097;-69
2023/04/05 10:40:15;;;;;;;5.60;3.42;;;14.40;51.20;;;;;;4964310;28;20062;-69
2023/04/05 10:42:45;;;;;;;5.45;3.80;;;14.50;53.20;;;;;;4968053;28;20039;-68
2023/04/05 10:45:14;;;;;;;5.38;3.40;;;14.10;50.80;;;;;;4961435;28;20098;-69
2023/04/05 10:47:54;;;;;;;4.88;3.50;;;13.80;51.40;;;;;;4944145;28;20077;-69
2023/04/05 10:50:22;;;;;;;5.25;3.90;;;14.00;51.10;;;;;;4966050;28;20482;-69
2023/04/05 10:52:49;;;;;;;6.13;3.58;;;14.10;51.90;;;;;;4966750;28;20133;-68
2023/04/05 10:55:16;;;;;;;4.05;3.40;;;14.40;52.20;;;;;;4944946;28;20042;-69
2023/04/05 10:57:44;;;;;;;5.95;3.92;;;14.90;53.30;;;;;;4966645;28;20054;-70
2023/04/05 11:00:10;;;;;;;6.35;3.85;;;15.30;50.80;;;;;;4949951;28;20114;-70
2023/04/05 11:02:36;;;;;;;5.30;3.72;;;15.50;50.70;;;;;;4952120;28;20086;-69
2023/04/05 11:05:03;;;;;;;4.82;3.67;;;15.60;50.60;;;;;;4951938;28;20042;-70
2023/04/05 11:07:43;;;;;;;4.13;3.30;;;15.70;51.50;;;;;;4946920;28;20510;-70
2023/04/05 11:10:16;;;;;;;5.50;3.25;;;15.90;50.10;;;;;;4951311;28;20143;-70
2023/04/05 11:12:45;;;;;;;4.88;3.08;;;16.10;50.40;;;;;;4964682;28;20047;-70
2023/04/05 11:15:32;;;;;;;6.97;3.65;;;16.30;49.60;;;;;;4966938;28;20554;-70
2023/04/05 11:18:24;;;;;;;4.05;3.45;;;16.40;49.70;;;;;;4965345;28;20084;-70
2023/04/05 11:21:04;;;;;;;4.80;3.30;;;16.70;47.80;;;;;;4964034;28;20559;-70
2023/04/05 11:23:30;;;;;;;4.00;3.42;;;16.80;48.30;;;;;;4947442;28;20523;-70
2023/04/05 11:26:05;;;;;;;4.80;3.42;;;16.90;49.50;;;;;;4964264;28;20051;-70
2023/04/05 11:28:38;;;;;;;4.85;3.42;;;17.10;47.90;;;;;;4985095;28;20034;-70
2023/04/05 11:31:18;;;;;;;5.18;3.53;;;17.20;47.70;;;;;;4947501;28;20199;-70
2023/04/05 11:33:44;;;;;;;5.35;3.60;;;16.80;45.90;;;;;;4946473;28;20495;-70
2023/04/05 11:36:10;;;;;;;4.25;3.53;;;15.70;46.20;;;;;;4950736;28;20077;-70
2023/04/05 11:38:36;;;;;;;8.82;3.95;;;15.00;48.70;;;;;;4964348;28;20475;-70
2023/04/05 11:41:06;;;;;;;6.07;3.90;;;15.00;48.70;;;;;;4977596;28;20126;-70
2023/04/05 11:43:37;;;;;;;5.28;3.40;;;15.40;47.80;;;;;;4942203;28;20047;-69
2023/04/05 11:46:06;;;;;;;5.30;4.05;;;15.80;49.00;;;;;;4942073;28;20051;-68
2023/04/05 11:48:33;;;;;;;6.38;3.63;;;16.30;49.50;;;;;;4966642;28;20436;-69
2023/04/05 11:50:59;;;;;;;5.80;4.03;;;17.00;48.60;;;;;;4949292;28;20059;-69
2023/04/05 11:53:25;;;;;;;6.43;3.42;;;17.60;49.20;;;;;;4926141;28;20574;-68
2023/04/05 11:55:51;;;;;;;4.60;3.33;;;17.90;47.10;;;;;;4948428;28;20104;-69
2023/04/05 11:58:20;;;;;;;3.97;3.00;;;18.20;47.10;;;;;;4945835;28;20038;-69
2023/04/05 12:00:56;;;;;;;5.75;3.45;;;18.30;45.50;;;;;;4968472;28;20046;-69
2023/04/05 12:03:22;;;;;;;5.30;3.58;;;18.40;44.10;;;;;;4963929;28;20098;-69
2023/04/05 12:05:52;;;;;;;6.03;3.70;;;18.00;43.40;;;;;;4962631;28;20051;-69
2023/04/05 12:08:19;;;;;;;4.63;3.53;;;18.00;43.80;;;;;;4962764;28;20046;-69
2023/04/05 12:10:56;;;;;;;4.13;3.35;;;18.00;44.30;;;;;;4966152;28;20034;-70
2023/04/05 12:13:40;;;;;;;4.53;3.40;;;18.00;43.40;;;;;;4938613;28;20039;-69
2023/04/05 12:16:08;;;;;;;5.03;3.42;;;18.10;43.90;;;;;;4951989;28;20047;-69
2023/04/05 12:18:36;;;;;;;4.38;3.13;;;18.40;44.70;;;;;;4946110;28;20054;-69
2023/04/05 12:21:03;;;;;;;7.60;3.30;;;18.70;42.70;;;;;;4982315;28;20043;-69
2023/04/05 12:23:30;;;;;;;4.57;3.47;;;18.50;43.20;;;;;;4941254;28;20047;-69
2023/04/05 12:25:56;;;;;;;5.55;2.92;;;18.50;42.60;;;;;;4951419;28;20043;-69
2023/04/05 12:28:22;;;;;;;4.07;3.33;;;18.70;43.40;;;;;;4946829;28;20047;-69
2023/04/05 12:30:50;;;;;;;4.60;3.20;;;19.00;43.30;;;;;;4969266;28;20100;-68
2023/04/05 12:33:28;;;;;;;4.72;3.00;;;19.10;43.10;;;;;;4944329;28;20138;-69
2023/04/05 12:35:54;;;;;;;4.53;2.75;;;19.30;41.50;;;;;;4948434;28;20104;-69
2023/04/05 12:38:20;;;;;;;3.50;2.80;;;19.60;42.20;;;;;;4964190;28;20034;-69
2023/04/05 12:40:45;;;;;;;5.38;2.95;;;19.90;42.00;;;;;;4963144;28;20434;-69
2023/04/05 12:43:18;;;;;;;4.25;3.20;;;19.80;41.50;;;;;;4957046;28;20696;-69
2023/04/05 12:45:44;;;;;;;3.60;2.90;;;19.70;40.40;;;;;;4966567;28;20058;-69
2023/04/05 12:48:14;;;;;;;4.50;3.28;;;19.50;39.60;;;;;;4951056;28;20043;-69
2023/04/05 12:50:45;;;;;;;3.65;3.03;;;19.30;40.40;;;;;;4961653;28;20069;-68